createdAt,value
2018-06-15T00:00:24.439Z,93824.48
2018-06-15T00:02:58.380Z,93818.59
2018-06-15T00:05:27.123Z,93820.44
2018-06-15T00:07:55.759Z,93819.44
2018-06-15T00:10:24.436Z,93817.19
2018-06-15T00:12:53.235Z,93815.29
2018-06-15T00:15:21.852Z,93815.83
2018-06-15T00:17:50.508Z,93809.22
2018-06-15T00:20:19.171Z,93812.37
2018-06-15T00:22:47.814Z,93814.39
2018-06-15T00:25:16.502Z,93822.56
2018-06-15T00:27:45.231Z,93829.28
2018-06-15T00:30:13.870Z,93820.83
2018-06-15T00:32:42.510Z,93814.88
2018-06-15T00:35:11.168Z,93823.44
2018-06-15T00:37:39.826Z,93817.92
2018-06-15T00:40:08.511Z,93815.98
2018-06-15T00:42:37.291Z,93812.29
2018-06-15T00:45:05.945Z,93814.47
2018-06-15T00:47:34.632Z,93815.05
2018-06-15T00:50:03.352Z,93819.48
2018-06-15T00:52:31.980Z,93818.91
2018-06-15T00:55:00.741Z,93818.48
2018-06-15T00:57:40.474Z,93817.82
2018-06-15T01:00:09.188Z,93827.02
2018-06-15T01:02:37.838Z,93834.41
2018-06-15T01:05:06.490Z,93830.42
2018-06-15T01:07:35.134Z,93824.11
2018-06-15T01:10:03.854Z,93822.63
2018-06-15T01:12:32.502Z,93819.78
2018-06-15T01:15:01.240Z,93817.45
2018-06-15T01:17:29.857Z,93819.66
2018-06-15T01:19:59.196Z,93820.09
2018-06-15T01:22:27.858Z,93817.26
2018-06-15T01:24:56.494Z,93821.53
2018-06-15T01:27:25.146Z,93815.29
2018-06-15T01:29:53.935Z,93810.38
2018-06-15T01:32:22.606Z,93813.29
2018-06-15T01:34:51.358Z,93817.15
2018-06-15T01:37:20.044Z,93808.89
2018-06-15T01:39:48.692Z,93811.19
2018-06-15T01:42:17.423Z,93807.73
2018-06-15T01:44:46.099Z,93809.24
2018-06-15T01:47:14.756Z,93814.45
2018-06-15T01:49:43.419Z,93813.64
2018-06-15T01:52:12.055Z,93807.22
2018-06-15T01:54:40.707Z,93805.59
2018-06-15T01:57:09.487Z,93809.20
2018-06-15T01:59:38.178Z,93812.77
2018-06-15T02:02:06.830Z,93810.38
2018-06-15T02:04:35.480Z,93815.80
2018-06-15T02:07:04.201Z,93815.75
2018-06-15T02:09:32.894Z,93816.23
2018-06-15T02:12:01.531Z,93811.41
2018-06-15T02:14:30.270Z,93813.80
2018-06-15T02:16:58.944Z,93814.30
2018-06-15T02:19:27.621Z,93820.66
2018-06-15T02:21:56.257Z,93819.34
2018-06-15T02:24:24.976Z,93818.86
2018-06-15T02:26:53.864Z,93822.84
2018-06-15T02:29:22.554Z,93819.59
2018-06-15T02:31:51.211Z,93815.25
2018-06-15T02:34:19.822Z,93818.38
2018-06-15T02:36:48.482Z,93814.39
2018-06-15T02:39:17.159Z,93820.22
2018-06-15T02:41:45.824Z,93818.42
2018-06-15T02:44:14.474Z,93820.98
2018-06-15T02:46:43.113Z,93817.28
2018-06-15T02:49:11.752Z,93822.53
2018-06-15T02:51:40.483Z,93825.86
2018-06-15T02:54:09.201Z,93822.94
2018-06-15T02:56:37.941Z,93830.13
2018-06-15T02:59:07.459Z,93839.22
2018-06-15T03:01:36.115Z,93844.05
2018-06-15T03:04:05.736Z,93834.77
2018-06-15T03:06:34.392Z,93819.41
2018-06-15T03:09:04.742Z,93817.55
2018-06-15T03:11:33.681Z,93821.16
2018-06-15T03:14:02.330Z,93825.38
2018-06-15T03:16:31.106Z,93809.43
2018-06-15T03:18:59.728Z,93808.45
2018-06-15T03:21:28.384Z,93807.23
2018-06-15T03:23:57.014Z,93804.61
2018-06-15T03:26:25.687Z,93808.83
2018-06-15T03:28:54.896Z,93807.19
2018-06-15T03:31:23.533Z,93809.81
2018-06-15T03:33:52.240Z,93820.08
2018-06-15T03:36:20.890Z,93823.23
2018-06-15T03:38:49.577Z,93826.16
2018-06-15T03:41:18.243Z,93827.81
2018-06-15T03:43:46.913Z,93829.66
2018-06-15T03:46:15.557Z,93834.23
2018-06-15T03:48:44.287Z,93836.84
2018-06-15T03:51:12.981Z,93839.75
2018-06-15T03:53:41.733Z,93839.38
2018-06-15T03:56:10.361Z,93837.03
2018-06-15T03:58:38.990Z,93839.42
2018-06-15T04:01:07.716Z,93835.90
2018-06-15T04:03:36.905Z,93841.56
2018-06-15T04:06:05.626Z,93845.93
2018-06-15T04:08:34.259Z,93845.69
2018-06-15T04:11:02.879Z,93844.16
2018-06-15T04:13:31.569Z,93842.31
2018-06-15T04:16:00.313Z,93845.53
2018-06-15T04:18:28.989Z,93841.54
2018-06-15T04:20:57.653Z,93844.87
2018-06-15T04:23:26.349Z,93846.35
2018-06-15T04:25:55.001Z,93848.61
2018-06-15T04:28:23.697Z,93842.16
2018-06-15T04:30:53.115Z,93838.38
2018-06-15T04:33:21.739Z,93842.60
2018-06-15T04:35:50.402Z,93836.06
2018-06-15T04:38:19.080Z,93835.12
2018-06-15T04:40:47.807Z,93841.50
2018-06-15T04:43:16.450Z,93838.40
2018-06-15T04:45:45.071Z,93845.02
2018-06-15T04:48:14.398Z,93838.69
2018-06-15T04:50:43.024Z,93845.66
2018-06-15T04:53:11.727Z,93842.14
2018-06-15T04:55:40.412Z,93843.90
2018-06-15T04:58:09.203Z,93846.88
2018-06-15T05:00:37.920Z,93843.81
2018-06-15T05:03:07.685Z,93843.91
2018-06-15T05:05:36.372Z,93846.22
2018-06-15T05:08:05.024Z,93848.36
2018-06-15T05:10:33.695Z,93843.63
2018-06-15T05:13:03.211Z,93850.84
2018-06-15T05:15:31.859Z,93849.95
2018-06-15T05:18:00.578Z,93843.11
2018-06-15T05:20:29.282Z,93847.70
2018-06-15T05:22:58.686Z,93844.81
2018-06-15T05:25:27.383Z,93841.98
2018-06-15T05:27:57.071Z,93845.56
2018-06-15T05:30:25.752Z,93848.98
2018-06-15T05:32:54.949Z,93848.00
2018-06-15T05:35:23.665Z,93855.44
2018-06-15T05:37:52.390Z,93848.56
2018-06-15T05:40:21.087Z,93852.11
2018-06-15T05:42:49.834Z,93846.89
2018-06-15T05:45:18.623Z,93848.84
2018-06-15T05:47:47.280Z,93842.52
2018-06-15T05:50:15.983Z,93848.56
2018-06-15T05:52:44.666Z,93847.87
2018-06-15T05:55:13.340Z,93844.51
2018-06-15T05:57:42.008Z,93844.25
2018-06-15T06:00:10.679Z,93853.51
2018-06-15T06:02:39.460Z,93854.05
2018-06-15T06:05:08.190Z,93853.00
2018-06-15T06:07:36.835Z,93851.80
2018-06-15T06:10:06.021Z,93852.94
2018-06-15T06:12:34.690Z,93852.54
2018-06-15T06:15:03.650Z,93856.80
2018-06-15T06:17:32.369Z,93851.50
2018-06-15T06:20:01.193Z,93850.72
2018-06-15T06:22:30.730Z,93856.13
2018-06-15T06:24:59.445Z,93859.63
2018-06-15T06:27:28.155Z,93860.20
2018-06-15T06:29:56.919Z,93861.06
2018-06-15T06:32:25.626Z,93860.88
2018-06-15T06:34:54.302Z,93859.16
2018-06-15T06:37:23.144Z,93862.56
2018-06-15T06:39:51.808Z,93860.12
2018-06-15T06:42:20.498Z,93860.39
2018-06-15T06:44:49.546Z,93859.81
2018-06-15T06:47:18.258Z,93858.25
2018-06-15T06:49:46.947Z,93864.08
2018-06-15T06:52:16.647Z,93863.59
2018-06-15T06:54:45.342Z,93858.42
2018-06-15T06:57:14.376Z,93858.76
2018-06-15T06:59:43.034Z,93856.27
2018-06-15T07:02:11.830Z,93856.36
2018-06-15T07:04:40.454Z,93857.84
2018-06-15T07:07:09.154Z,93860.81
2018-06-15T07:09:37.869Z,93854.81
2018-06-15T07:12:06.548Z,93853.28
2018-06-15T07:14:35.306Z,93849.86
2018-06-15T07:17:03.947Z,93850.44
2018-06-15T07:19:32.639Z,93850.45
2018-06-15T07:22:01.333Z,93851.29
2018-06-15T07:24:30.187Z,93850.50
2018-06-15T07:26:58.843Z,93852.34
2018-06-15T07:29:27.528Z,93849.45
2018-06-15T07:31:56.212Z,93848.63
2018-06-15T07:34:24.879Z,93849.44
2018-06-15T07:36:53.544Z,93848.86
2018-06-15T07:39:22.205Z,93847.77
2018-06-15T07:41:50.916Z,93845.09
2018-06-15T07:44:19.562Z,93844.88
2018-06-15T07:46:48.230Z,93840.89
2018-06-15T07:49:17.023Z,93841.97
2018-06-15T07:51:45.731Z,93841.39
2018-06-15T07:54:14.366Z,93840.05
2018-06-15T07:56:43.040Z,93841.12
2018-06-15T07:59:11.782Z,93832.43
2018-06-15T08:01:40.448Z,93834.25
2018-06-15T08:04:11.406Z,93836.64
2018-06-15T08:06:40.354Z,93832.69
2018-06-15T08:09:09.856Z,93834.25
2018-06-15T08:11:38.874Z,93832.12
2018-06-15T08:14:07.529Z,93830.02
2018-06-15T08:16:36.168Z,93833.95
2018-06-15T08:19:04.870Z,93829.14
2018-06-15T08:21:33.538Z,93821.41
2018-06-15T08:24:02.155Z,93819.86
2018-06-15T08:26:30.819Z,93822.63
2018-06-15T08:28:59.475Z,93817.04
2018-06-15T08:31:28.215Z,93810.23
2018-06-15T08:33:56.888Z,93819.37
2018-06-15T08:36:25.563Z,93815.09
2018-06-15T08:38:54.246Z,93813.66
2018-06-15T08:41:22.910Z,93813.30
2018-06-15T08:43:51.671Z,93814.16
2018-06-15T08:46:20.320Z,93813.41
2018-06-15T08:48:49.861Z,93813.09
2018-06-15T08:51:18.528Z,93807.25
2018-06-15T08:53:47.196Z,93806.40
2018-06-15T08:56:15.855Z,93812.73
2018-06-15T09:01:23.154Z,93811.31
2018-06-15T09:03:51.895Z,93813.56
2018-06-15T09:06:20.526Z,93821.73
2018-06-15T09:08:49.215Z,93825.85
2018-06-15T09:11:17.950Z,93821.24
2018-06-15T09:13:46.623Z,93818.09
2018-06-15T09:16:15.300Z,93822.44
2018-06-15T09:18:43.965Z,93814.55
2018-06-15T09:21:12.680Z,93813.30
2018-06-15T09:23:41.445Z,93813.95
2018-06-15T09:26:10.161Z,93816.58
2018-06-15T09:28:38.929Z,93809.80
2018-06-15T09:31:08.089Z,93805.02
2018-06-15T09:33:36.798Z,93811.31
2018-06-15T09:36:05.476Z,93808.50
2018-06-15T09:38:34.261Z,93806.58
2018-06-15T09:41:02.947Z,93798.41
2018-06-15T09:43:32.564Z,93792.24
2018-06-15T09:46:01.261Z,93788.50
2018-06-15T09:48:30.926Z,93780.88
2018-06-15T09:50:59.645Z,93779.61
2018-06-15T09:53:28.339Z,93772.20
2018-06-15T09:55:57.862Z,93756.63
2018-06-15T09:58:27.105Z,93756.95
2018-06-15T10:01:12.274Z,93751.84
2018-06-15T10:03:41.315Z,93754.73
2018-06-15T10:06:09.977Z,93748.75
2018-06-15T10:08:38.683Z,93740.19
2018-06-15T10:11:07.299Z,93738.40
2018-06-15T10:13:35.944Z,93743.11
2018-06-15T10:16:04.710Z,93740.89
2018-06-15T10:18:33.330Z,93757.72
2018-06-15T10:21:01.954Z,93745.90
2018-06-15T10:23:30.583Z,93750.48
2018-06-15T10:25:59.610Z,93750.95
2018-06-15T10:28:28.265Z,93754.12
2018-06-15T10:30:56.928Z,93760.14
2018-06-15T10:33:25.694Z,93748.71
2018-06-15T10:35:54.475Z,93747.94
2018-06-15T10:38:23.107Z,93745.84
2018-06-15T10:40:51.863Z,93742.94
2018-06-15T10:43:20.499Z,93742.39
2018-06-15T10:45:49.256Z,93732.72
2018-06-15T10:48:17.933Z,93727.30
2018-06-15T10:50:46.573Z,93721.67
2018-06-15T10:53:15.221Z,93713.75
2018-06-15T10:55:43.887Z,93711.64
2018-06-15T10:58:12.658Z,93709.34
2018-06-15T11:00:45.024Z,93723.57
2018-06-15T11:03:13.669Z,93731.13
2018-06-15T11:05:42.366Z,93734.67
2018-06-15T11:08:11.034Z,93741.58
2018-06-15T11:10:39.809Z,93747.42
2018-06-15T11:13:08.610Z,93754.33
2018-06-15T11:15:37.912Z,93759.26
2018-06-15T11:18:06.696Z,93759.05
2018-06-15T11:20:36.316Z,93762.74
2018-06-15T11:23:05.040Z,93778.53
2018-06-15T11:25:33.789Z,93793.61
2018-06-15T11:28:02.540Z,93801.46
2018-06-15T11:30:31.305Z,93804.95
2018-06-15T11:33:00.073Z,93796.27
2018-06-15T11:35:29.726Z,93798.11
2018-06-15T11:37:58.532Z,93797.20
2018-06-15T11:40:27.228Z,93799.76
2018-06-15T11:42:55.916Z,93796.91
2018-06-15T11:45:25.870Z,93807.98
2018-06-15T11:47:54.635Z,93804.25
2018-06-15T11:50:23.333Z,93798.56
2018-06-15T11:52:52.032Z,93804.43
2018-06-15T11:55:20.732Z,93798.63
2018-06-15T11:57:49.387Z,93793.34
2018-06-15T12:00:18.050Z,93804.41
2018-06-15T12:02:46.700Z,93815.47
2018-06-15T12:05:15.465Z,93820.50
2018-06-15T12:07:44.118Z,93822.89
2018-06-15T12:10:12.754Z,93828.18
2018-06-15T12:12:41.450Z,93827.31
2018-06-15T12:15:10.100Z,93825.48
2018-06-15T12:17:38.778Z,93827.04
2018-06-15T12:20:07.464Z,93822.21
2018-06-15T12:22:36.183Z,93824.83
2018-06-15T12:25:05.147Z,93814.14
2018-06-15T12:27:33.826Z,93812.20
2018-06-15T12:30:04.091Z,93809.34
2018-06-15T12:32:32.784Z,93810.86
2018-06-15T12:35:01.428Z,93805.31
2018-06-15T12:37:30.477Z,93807.40
2018-06-15T12:39:59.146Z,93804.84
2018-06-15T12:42:27.786Z,93797.45
2018-06-15T12:44:56.419Z,93793.05
2018-06-15T12:47:25.121Z,93799.17
2018-06-15T12:49:53.886Z,93799.31
2018-06-15T12:52:22.504Z,93802.06
2018-06-15T12:54:51.154Z,93800.69
2018-06-15T12:57:19.925Z,93795.52
2018-06-15T12:59:48.546Z,93800.00
2018-06-15T13:02:17.186Z,93800.78
2018-06-15T13:04:45.913Z,93796.16
2018-06-15T13:07:14.580Z,93790.56
2018-06-15T13:09:43.249Z,93777.81
2018-06-15T13:12:11.910Z,93779.29
2018-06-15T13:14:40.695Z,93773.25
2018-06-15T13:17:09.327Z,93775.56
2018-06-15T13:19:37.955Z,93772.46
2018-06-15T13:22:06.789Z,93775.45
2018-06-15T13:24:36.387Z,93783.16
2018-06-15T13:27:05.108Z,93782.98
2018-06-15T13:29:33.805Z,93789.92
2018-06-15T13:32:02.483Z,93796.25
2018-06-15T13:34:31.140Z,93801.63
2018-06-15T13:36:59.812Z,93801.55
2018-06-15T13:39:28.461Z,93798.59
2018-06-15T13:41:57.266Z,93796.52
2018-06-15T13:44:25.868Z,93807.73
2018-06-15T13:46:55.115Z,93804.88
2018-06-15T13:49:24.225Z,93803.09
2018-06-15T13:51:52.923Z,93806.26
2018-06-15T13:54:21.577Z,93807.85
2018-06-15T13:56:50.233Z,93829.14
2018-06-15T13:59:18.882Z,93824.84
2018-06-15T14:01:47.555Z,93833.11
2018-06-15T14:04:16.251Z,93827.89
2018-06-15T14:06:44.855Z,93834.49
2018-06-15T14:09:13.679Z,93826.45
2018-06-15T14:11:42.351Z,93831.81
2018-06-15T14:14:11.656Z,93833.51
2018-06-15T14:16:40.331Z,93836.36
2018-06-15T14:19:09.065Z,93847.41
2018-06-15T14:21:37.761Z,93855.70
2018-06-15T14:24:06.717Z,93861.50
2018-06-15T14:26:35.431Z,93867.34
2018-06-15T14:29:04.165Z,93880.96
2018-06-15T14:31:32.862Z,93889.82
2018-06-15T14:34:01.641Z,93888.47
2018-06-15T14:36:30.469Z,93889.98
2018-06-15T14:38:59.137Z,93909.36
2018-06-15T14:41:27.826Z,93889.58
2018-06-15T14:43:56.527Z,93899.81
2018-06-15T14:46:25.175Z,93899.27
2018-06-15T14:48:53.846Z,93885.34
2018-06-15T14:51:22.434Z,93898.53
2018-06-15T14:53:51.122Z,93919.47
2018-06-15T14:56:19.780Z,93918.78
2018-06-15T14:58:48.526Z,93930.09
2018-06-15T15:01:17.155Z,93931.20
2018-06-15T15:03:45.743Z,93916.23
2018-06-15T15:06:14.454Z,93914.30
2018-06-15T15:08:43.213Z,93914.13
2018-06-15T15:11:11.876Z,93921.50
2018-06-15T15:13:40.565Z,93907.69
2018-06-15T15:16:09.164Z,93911.94
2018-06-15T15:18:37.807Z,93899.39
2018-06-15T15:21:06.485Z,93897.49
2018-06-15T15:23:35.154Z,93892.84
2018-06-15T15:26:03.846Z,93893.58
2018-06-15T15:28:32.457Z,93873.09
2018-06-15T15:31:01.079Z,93864.03
2018-06-15T15:33:29.759Z,93869.25
2018-06-15T15:35:59.094Z,93863.84
2018-06-15T15:38:27.737Z,93856.52
2018-06-15T15:40:56.577Z,93847.48
2018-06-15T15:43:25.806Z,93838.12
2018-06-15T15:45:54.394Z,93838.12
2018-06-15T15:48:23.018Z,93856.02
2018-06-15T15:50:51.773Z,93855.41
2018-06-15T15:53:20.478Z,93860.36
2018-06-15T15:55:49.099Z,93874.17
2018-06-15T15:58:17.727Z,93864.64
2018-06-15T16:00:46.434Z,93863.63
2018-06-15T16:03:15.304Z,93860.59
2018-06-15T16:05:44.052Z,93859.45
2018-06-15T16:08:12.766Z,93866.00
2018-06-15T16:10:41.586Z,93879.91
2018-06-15T16:13:10.254Z,93900.55
2018-06-15T16:15:39.733Z,93915.92
2018-06-15T16:18:08.427Z,93914.86
2018-06-15T16:20:37.047Z,93906.23
2018-06-15T16:23:05.751Z,93920.27
2018-06-15T16:25:34.398Z,93916.75
2018-06-15T16:28:03.043Z,93940.66
2018-06-15T16:30:31.743Z,93938.16
2018-06-15T16:33:00.435Z,93938.32
2018-06-15T16:35:29.088Z,93934.91
2018-06-15T16:37:57.839Z,93935.25
2018-06-15T16:40:26.568Z,93933.05
2018-06-15T16:42:55.239Z,93934.89
2018-06-15T16:45:23.877Z,93935.93
2018-06-15T16:47:52.755Z,93947.22
2018-06-15T16:50:21.393Z,93956.94
2018-06-15T16:52:50.052Z,93967.84
2018-06-15T16:55:18.695Z,93978.46
2018-06-15T16:57:47.432Z,93980.19
2018-06-15T17:00:16.171Z,93991.19
2018-06-15T17:02:44.879Z,93996.06
2018-06-15T17:05:13.526Z,93998.38
2018-06-15T17:07:42.158Z,93997.30
2018-06-15T17:10:10.785Z,93996.68
2018-06-15T17:12:39.476Z,93993.91
2018-06-15T17:15:08.273Z,93990.84
2018-06-15T17:17:36.932Z,93983.64
2018-06-15T17:20:05.708Z,93977.15
2018-06-15T17:22:34.355Z,93971.22
2018-06-15T17:25:03.022Z,93973.42
2018-06-15T17:27:32.108Z,93966.92
2018-06-15T17:30:00.908Z,93962.70
2018-06-15T17:32:29.549Z,93959.61
2018-06-15T17:34:58.201Z,93961.12
2018-06-15T17:37:26.838Z,93959.11
2018-06-15T17:39:55.748Z,93964.77
2018-06-15T17:42:24.378Z,93951.36
2018-06-15T17:44:53.113Z,93951.70
2018-06-15T17:47:21.804Z,93951.94
2018-06-15T17:49:50.504Z,93946.45
2018-06-15T17:52:19.181Z,93951.23
2018-06-15T17:54:47.830Z,93954.33
2018-06-15T17:57:16.620Z,93962.50
2018-06-15T17:59:45.393Z,93971.66
2018-06-15T18:02:14.074Z,93970.02
2018-06-15T18:04:42.803Z,93969.17
2018-06-15T18:07:11.699Z,93970.07
2018-06-15T18:09:40.341Z,93969.10
2018-06-15T18:12:10.131Z,93965.51
2018-06-15T18:14:38.907Z,93971.20
2018-06-15T18:17:07.692Z,93980.25
2018-06-15T18:19:41.544Z,93991.06
2018-06-15T18:22:14.494Z,93986.87
2018-06-15T18:24:44.019Z,93996.91
2018-06-15T18:27:12.670Z,94004.78
2018-06-15T18:29:41.432Z,94010.50
2018-06-15T18:32:12.372Z,94007.68
2018-06-15T18:34:41.249Z,94019.13
2018-06-15T18:37:10.062Z,94022.83
2018-06-15T18:39:38.799Z,94028.43
2018-06-15T18:42:07.600Z,94034.12
2018-06-15T18:44:36.290Z,94036.62
2018-06-15T18:47:04.950Z,94034.96
2018-06-15T18:49:33.574Z,94029.83
2018-06-15T18:52:02.244Z,94042.95
2018-06-15T18:54:31.670Z,94043.25
2018-06-15T18:57:00.431Z,94042.83
2018-06-15T18:59:29.091Z,94037.41
2018-06-15T19:01:58.071Z,94036.16
2018-06-15T19:04:26.737Z,94033.72
2018-06-15T19:06:55.515Z,94036.58
2018-06-15T19:09:24.139Z,94037.19
2018-06-15T19:11:52.876Z,94037.37
2018-06-15T19:14:21.659Z,94034.43
2018-06-15T19:16:50.300Z,94035.43
2018-06-15T19:19:19.289Z,94033.09
2018-06-15T19:21:47.951Z,94035.25
2018-06-15T19:24:16.605Z,94041.24
2018-06-15T19:26:45.264Z,94042.37
2018-06-15T19:29:14.061Z,94042.20
2018-06-15T19:31:42.752Z,94043.08
2018-06-15T19:34:11.410Z,94044.83
2018-06-15T19:36:43.070Z,94046.66
2018-06-15T19:39:11.716Z,94043.22
2018-06-15T19:41:40.373Z,94042.97
2018-06-15T19:44:09.006Z,94046.86
2018-06-15T19:46:37.730Z,94050.80
2018-06-15T19:49:06.411Z,94046.47
2018-06-15T19:51:35.114Z,94047.49
2018-06-15T19:54:03.953Z,94043.98
2018-06-15T19:56:32.602Z,94040.47
2018-06-15T19:59:01.321Z,94047.39
2018-06-15T20:01:30.133Z,94040.87
2018-06-15T20:03:59.480Z,94036.33
2018-06-15T20:06:29.347Z,94040.80
2018-06-15T20:08:57.979Z,94041.70
2018-06-15T20:11:26.836Z,94042.23
2018-06-15T20:13:55.730Z,94037.27
2018-06-15T20:16:24.450Z,94040.80
2018-06-15T20:18:53.102Z,94042.47
2018-06-15T20:21:21.787Z,94039.43
2018-06-15T20:23:50.470Z,94037.68
2018-06-15T20:26:19.439Z,94036.92
2018-06-15T20:28:48.165Z,94030.94
2018-06-15T20:31:16.959Z,94036.66
2018-06-15T20:33:45.615Z,94036.28
2018-06-15T20:36:14.563Z,94034.53
2018-06-15T20:38:43.204Z,94033.16
2018-06-15T20:41:12.774Z,94031.02
2018-06-15T20:43:41.563Z,94029.39
2018-06-15T20:46:10.762Z,94033.83
2018-06-15T20:48:39.412Z,94033.59
2018-06-15T20:51:08.206Z,94019.58
2018-06-15T20:53:37.235Z,94024.43
2018-06-15T20:56:06.124Z,94025.19
2018-06-15T20:58:34.816Z,94025.74
2018-06-15T21:01:03.548Z,94029.48
2018-06-15T21:03:32.260Z,94025.08
2018-06-15T21:06:01.420Z,94017.87
2018-06-15T21:08:30.149Z,94028.59
2018-06-15T21:10:58.874Z,94031.12
2018-06-15T21:13:27.645Z,94032.84
2018-06-15T21:15:56.374Z,94030.75
2018-06-15T21:18:25.092Z,94030.69
2018-06-15T21:20:53.834Z,94028.49
2018-06-15T21:23:22.732Z,94029.29
2018-06-15T21:25:51.418Z,94035.56
2018-06-15T21:28:20.014Z,94035.56
2018-06-15T21:30:48.727Z,94036.77
2018-06-15T21:33:17.335Z,94037.66
2018-06-15T21:35:46.066Z,94041.95
2018-06-15T21:38:14.674Z,94031.05
2018-06-15T21:40:43.350Z,94032.77
2018-06-15T21:43:12.283Z,94032.41
2018-06-15T21:45:41.032Z,94034.37
2018-06-15T21:48:09.663Z,94032.89
2018-06-15T21:50:38.334Z,94045.28
2018-06-15T21:53:06.977Z,94047.45
2018-06-15T21:55:35.676Z,94043.52
2018-06-15T21:58:04.374Z,94042.37
2018-06-15T22:00:33.072Z,94043.64
2018-06-15T22:03:01.747Z,94038.54
2018-06-15T22:05:30.410Z,94032.41
2018-06-15T22:07:59.078Z,94026.84
2018-06-15T22:10:27.708Z,94040.97
2018-06-15T22:12:56.373Z,94032.69
2018-06-15T22:15:25.665Z,94028.52
2018-06-15T22:17:54.391Z,94025.16
2018-06-15T22:20:22.985Z,94028.20
2018-06-15T22:22:51.603Z,94028.20
2018-06-15T22:25:20.296Z,94025.66
2018-06-15T22:27:48.961Z,94022.34
2018-06-15T22:30:17.671Z,94019.78
2018-06-15T22:32:46.303Z,94015.84
2018-06-15T22:35:14.904Z,94008.95
2018-06-15T22:37:43.677Z,94008.66
2018-06-15T22:40:12.353Z,93998.22
2018-06-15T22:42:40.961Z,94004.02
2018-06-15T22:45:09.582Z,93994.77
2018-06-15T22:47:38.207Z,93993.34
2018-06-15T22:50:06.822Z,93998.27
2018-06-15T22:52:35.458Z,94003.41
2018-06-15T22:55:04.161Z,94007.13
2018-06-15T22:57:32.896Z,94003.63
2018-06-15T23:00:01.519Z,94001.46
2018-06-15T23:02:30.413Z,93999.62
2018-06-15T23:04:59.051Z,94003.86
2018-06-15T23:07:27.750Z,94009.53
2018-06-15T23:09:56.397Z,94013.17
2018-06-15T23:12:24.980Z,94022.44
2018-06-15T23:14:53.664Z,94019.09
2018-06-15T23:17:22.279Z,94027.67
2018-06-15T23:19:50.946Z,94025.28
2018-06-15T23:22:19.576Z,94029.58
2018-06-15T23:24:48.242Z,94032.85
2018-06-15T23:27:16.985Z,94033.52
2018-06-15T23:29:45.643Z,94034.59
2018-06-15T23:32:14.334Z,94036.34
2018-06-15T23:34:43.043Z,94038.97
2018-06-15T23:37:11.810Z,94035.05
2018-06-15T23:39:40.554Z,94032.31
2018-06-15T23:42:09.521Z,94030.28
2018-06-15T23:44:38.207Z,94026.78
2018-06-15T23:47:06.861Z,94037.86
2018-06-15T23:49:35.505Z,94037.21
2018-06-15T23:52:04.228Z,94036.77
2018-06-15T23:54:32.839Z,94031.30
2018-06-15T23:57:01.463Z,94028.92
2018-06-15T23:59:30.111Z,94024.34
